Time;durP1;ratioP1;P1;durP2;ratioP2;P2;SDS_P1;SDS_P2;PMS_P1;PMS_P2;Temp;Humidity;BMP_temperature;BMP_pressure;BME280_temperature;BME280_humidity;BME280_pressure;Samples;Min_cycle;Max_cycle;Signal;HPM_P1;HPM_P2
2022/04/09 00:00:31;;;;;;;;;;;1.70;99.90;;;;;;5067045;28;19956;-74
2022/04/09 00:02:57;;;;;;;;;;;1.70;99.90;;;;;;5062758;28;19996;-74
2022/04/09 00:05:24;;;;;;;;;;;1.70;99.90;;;;;;5066338;28;19924;-74
2022/04/09 00:07:51;;;;;;;;;;;1.70;99.90;;;;;;5066378;28;19920;-75
2022/04/09 00:10:17;;;;;;;;;;;1.60;99.90;;;;;;5066866;28;19921;-74
2022/04/09 00:12:46;;;;;;;;;;;1.60;99.90;;;;;;5067000;28;19921;-74
2022/04/09 00:15:13;;;;;;;;;;;1.60;99.90;;;;;;5066372;28;20120;-74
2022/04/09 00:17:41;;;;;;;;;;;1.60;99.90;;;;;;5066497;28;19921;-74
2022/04/09 00:20:08;;;;;;;;;;;1.60;99.90;;;;;;5066653;28;19920;-74
2022/04/09 00:22:36;;;;;;;;;;;1.50;99.90;;;;;;5066570;28;19921;-73
2022/04/09 00:25:04;;;;;;;;;;;1.60;99.90;;;;;;5066518;28;19920;-74
2022/04/09 00:27:31;;;;;;;;;;;1.60;99.90;;;;;;5066149;28;19987;-74
2022/04/09 00:29:57;;;;;;;;;;;1.60;99.90;;;;;;5066256;28;19924;-74
2022/04/09 00:32:24;;;;;;;;;;;1.60;99.90;;;;;;5066843;28;20097;-74
2022/04/09 00:34:52;;;;;;;;;;;1.50;99.90;;;;;;5066358;28;19921;-74
2022/04/09 00:37:19;;;;;;;;;;;1.50;99.90;;;;;;5064845;28;19921;-74
2022/04/09 00:39:46;;;;;;;;;;;1.50;99.90;;;;;;5065558;28;19927;-74
2022/04/09 00:42:13;;;;;;;;;;;1.60;99.90;;;;;;5066252;28;19928;-74
2022/04/09 00:44:39;;;;;;;;;;;1.60;99.90;;;;;;5066522;28;19928;-74
2022/04/09 00:47:06;;;;;;;;;;;1.50;99.90;;;;;;5065556;28;19921;-75
2022/04/09 00:49:33;;;;;;;;;;;1.60;99.90;;;;;;5065914;28;20120;-74
2022/04/09 00:52:01;;;;;;;;;;;1.50;99.90;;;;;;5065930;28;19936;-73
2022/04/09 00:54:29;;;;;;;;;;;1.50;99.90;;;;;;5066203;28;19928;-74
2022/04/09 00:56:59;;;;;;;;;;;1.50;99.90;;;;;;5065291;28;19920;-74
2022/04/09 00:59:27;;;;;;;;;;;1.50;99.90;;;;;;5066058;28;19951;-74
2022/04/09 01:01:53;;;;;;;;;;;1.50;99.90;;;;;;5065887;28;19925;-74
2022/04/09 01:04:20;;;;;;;;;;;1.50;99.90;;;;;;5065563;28;20119;-74
2022/04/09 01:06:47;;;;;;;;;;;1.50;99.90;;;;;;5065165;28;19921;-74
2022/04/09 01:09:15;;;;;;;;;;;1.40;99.90;;;;;;5065516;28;19967;-74
2022/04/09 01:11:41;;;;;;;;;;;1.40;99.90;;;;;;5065668;28;19935;-74
2022/04/09 01:14:08;;;;;;;;;;;1.40;99.90;;;;;;5065924;28;19920;-75
2022/04/09 01:16:35;;;;;;;;;;;1.40;99.90;;;;;;5065115;28;19921;-74
2022/04/09 01:19:02;;;;;;;;;;;1.30;99.90;;;;;;5065888;28;19921;-73
2022/04/09 01:21:29;;;;;;;;;;;1.30;99.90;;;;;;5065473;28;19921;-74
2022/04/09 01:23:57;;;;;;;;;;;1.30;99.90;;;;;;5065495;28;19952;-74
2022/04/09 01:26:23;;;;;;;;;;;1.30;99.90;;;;;;5065062;28;19927;-74
2022/04/09 01:28:50;;;;;;;;;;;1.30;99.90;;;;;;5065514;28;19921;-74
2022/04/09 01:31:17;;;;;;;;;;;1.20;99.90;;;;;;5065148;28;20120;-74
2022/04/09 01:33:44;;;;;;;;;;;1.30;99.90;;;;;;5062547;28;19924;-74
2022/04/09 01:36:10;;;;;;;;;;;1.30;99.90;;;;;;5076615;22;19925;-72
2022/04/09 01:38:37;;;;;;;;;;;1.40;99.90;;;;;;5070261;28;19921;-72
2022/04/09 01:41:05;;;;;;;;;;;1.40;99.90;;;;;;5080461;28;19927;-71
2022/04/09 01:43:32;;;;;;;;;;;1.40;99.90;;;;;;5079800;28;19921;-71
2022/04/09 01:45:58;;;;;;;;;;;1.50;99.90;;;;;;5064434;28;20212;-71
2022/04/09 01:48:25;;;;;;;;;;;1.50;99.90;;;;;;5074378;28;20151;-72
2022/04/09 01:50:53;;;;;;;;;;;1.50;99.90;;;;;;5055775;28;20212;-71
2022/04/09 01:53:19;;;;;;;;;;;1.50;99.90;;;;;;5047289;28;19936;-72
2022/04/09 01:55:46;;;;;;;;;;;1.50;99.90;;;;;;5063480;28;19920;-71
2022/04/09 01:58:14;;;;;;;;;;;1.50;99.90;;;;;;5061007;28;19920;-72
2022/04/09 02:00:40;;;;;;;;;;;1.50;99.90;;;;;;5066048;28;19927;-71
2022/04/09 02:03:07;;;;;;;;;;;1.50;99.90;;;;;;5065835;28;19924;-71
2022/04/09 02:05:34;;;;;;;;;;;1.50;99.90;;;;;;5052993;28;19928;-72
2022/04/09 02:08:01;;;;;;;;;;;1.60;99.90;;;;;;5062961;28;19933;-72
2022/04/09 02:10:30;;;;;;;;;;;1.60;99.90;;;;;;5064003;28;19943;-71
2022/04/09 02:12:56;;;;;;;;;;;1.60;99.90;;;;;;5064666;28;19948;-72
2022/04/09 02:15:24;;;;;;;;;;;1.60;99.90;;;;;;5063951;28;19928;-71
2022/04/09 02:17:50;;;;;;;;;;;1.60;99.90;;;;;;5064284;28;19920;-71
2022/04/09 02:20:17;;;;;;;;;;;1.70;99.90;;;;;;5063572;28;19927;-71
2022/04/09 02:22:44;;;;;;;;;;;1.70;99.90;;;;;;5064613;28;20115;-71
2022/04/09 02:25:12;;;;;;;;;;;1.80;99.90;;;;;;5064140;28;19928;-72
2022/04/09 02:27:38;;;;;;;;;;;1.70;99.90;;;;;;5064103;28;19927;-72
2022/04/09 02:30:07;;;;;;;;;;;1.70;99.90;;;;;;5071024;28;19921;-72
2022/04/09 02:32:42;;;;;;;;;;;1.70;99.90;;;;;;5069469;28;19920;-71
2022/04/09 02:35:09;;;;;;;;;;;1.60;99.90;;;;;;5083848;28;19920;-71
2022/04/09 02:37:36;;;;;;;;;;;1.60;99.90;;;;;;5083976;28;19924;-71
2022/04/09 02:40:03;;;;;;;;;;;1.50;99.90;;;;;;5084186;28;19920;-72
2022/04/09 02:42:29;;;;;;;;;;;1.50;99.90;;;;;;5084330;28;19927;-72
2022/04/09 02:44:56;;;;;;;;;;;1.50;99.90;;;;;;5081240;28;19920;-71
2022/04/09 02:47:22;;;;;;;;;;;1.40;99.90;;;;;;5063190;28;19920;-71
2022/04/09 02:49:50;;;;;;;;;;;1.40;99.90;;;;;;5064045;28;19920;-72
2022/04/09 02:52:17;;;;;;;;;;;1.40;99.90;;;;;;5064219;28;19920;-72
2022/04/09 02:54:43;;;;;;;;;;;1.40;99.90;;;;;;5064217;28;19927;-71
2022/04/09 02:57:10;;;;;;;;;;;1.40;99.90;;;;;;5062817;28;19928;-71
2022/04/09 02:59:36;;;;;;;;;;;1.40;99.90;;;;;;5063625;28;19921;-71
2022/04/09 03:02:03;;;;;;;;;;;1.40;99.90;;;;;;5067977;28;19920;-71
2022/04/09 03:04:30;;;;;;;;;;;1.40;99.90;;;;;;5082157;28;19927;-71
2022/04/09 03:06:58;;;;;;;;;;;1.50;99.90;;;;;;5083348;28;19987;-71
2022/04/09 03:09:25;;;;;;;;;;;1.50;99.90;;;;;;5073759;28;19925;-71
2022/04/09 03:11:51;;;;;;;;;;;1.50;99.90;;;;;;5063458;28;19966;-71
2022/04/09 03:14:18;;;;;;;;;;;1.60;99.90;;;;;;5063267;28;19986;-71
2022/04/09 03:16:44;;;;;;;;;;;1.60;99.90;;;;;;5063119;28;19962;-72
2022/04/09 03:19:11;;;;;;;;;;;1.60;99.90;;;;;;5063511;28;19920;-71
2022/04/09 03:21:38;;;;;;;;;;;1.60;99.90;;;;;;5062521;28;19927;-73
2022/04/09 03:24:06;;;;;;;;;;;1.60;99.90;;;;;;5063184;28;19921;-72
2022/04/09 03:26:32;;;;;;;;;;;1.60;99.90;;;;;;5062740;28;19921;-72
2022/04/09 03:28:59;;;;;;;;;;;1.60;99.90;;;;;;5063791;28;19932;-72
2022/04/09 03:31:26;;;;;;;;;;;1.60;99.90;;;;;;5063215;28;19928;-72
2022/04/09 03:33:53;;;;;;;;;;;1.60;99.90;;;;;;5063353;28;19927;-72
2022/04/09 03:36:19;;;;;;;;;;;1.60;99.90;;;;;;5062576;28;20120;-72
2022/04/09 03:38:46;;;;;;;;;;;1.60;99.90;;;;;;5063203;28;19988;-72
2022/04/09 03:41:14;;;;;;;;;;;1.60;99.90;;;;;;5063126;28;19924;-71
2022/04/09 03:43:40;;;;;;;;;;;1.60;99.90;;;;;;5063001;28;19921;-73
2022/04/09 03:46:07;;;;;;;;;;;1.60;99.90;;;;;;5062253;28;19921;-72
2022/04/09 03:48:34;;;;;;;;;;;1.60;99.90;;;;;;5063096;28;20226;-72
2022/04/09 03:51:00;;;;;;;;;;;1.60;99.90;;;;;;5063096;28;20205;-72
2022/04/09 03:53:27;;;;;;;;;;;1.70;99.90;;;;;;5062747;28;20204;-72
2022/04/09 03:55:54;;;;;;;;;;;1.60;99.90;;;;;;5062302;28;19925;-72
2022/04/09 03:58:22;;;;;;;;;;;1.70;99.90;;;;;;5062730;28;19928;-72
2022/04/09 04:00:49;;;;;;;;;;;1.60;99.90;;;;;;5060654;28;19967;-72
2022/04/09 04:03:16;;;;;;;;;;;1.70;99.90;;;;;;5059470;28;19921;-72
2022/04/09 04:05:42;;;;;;;;;;;1.70;99.90;;;;;;5052832;28;19921;-72
2022/04/09 04:08:09;;;;;;;;;;;1.70;99.90;;;;;;5062832;28;19931;-72
2022/04/09 04:10:37;;;;;;;;;;;1.70;99.90;;;;;;5062783;28;20119;-72
2022/04/09 04:13:03;;;;;;;;;;;1.70;99.90;;;;;;5062974;28;19964;-72
2022/04/09 04:15:31;;;;;;;;;;;1.70;99.90;;;;;;5061979;28;19921;-71
2022/04/09 04:17:58;;;;;;;;;;;1.70;99.90;;;;;;5062961;28;19925;-72
2022/04/09 04:20:25;;;;;;;;;;;1.70;99.90;;;;;;5062862;28;20107;-72
2022/04/09 04:22:52;;;;;;;;;;;1.70;99.90;;;;;;5062924;28;19921;-72
2022/04/09 04:25:19;;;;;;;;;;;1.70;99.90;;;;;;5061990;28;20269;-73
2022/04/09 04:27:46;;;;;;;;;;;1.80;99.90;;;;;;5062993;28;19928;-72
2022/04/09 04:30:13;;;;;;;;;;;1.80;99.90;;;;;;5062536;28;19920;-71
2022/04/09 04:32:42;;;;;;;;;;;1.80;99.90;;;;;;5064307;28;19921;-72
2022/04/09 04:35:09;;;;;;;;;;;1.80;99.90;;;;;;5066235;28;19929;-72
2022/04/09 04:37:39;;;;;;;;;;;1.80;99.90;;;;;;5066069;28;19920;-72
2022/04/09 04:40:05;;;;;;;;;;;1.80;99.90;;;;;;5066280;28;19928;-72
2022/04/09 04:42:32;;;;;;;;;;;1.70;99.90;;;;;;5066517;28;19932;-72
2022/04/09 04:44:59;;;;;;;;;;;1.70;99.90;;;;;;5066131;28;19924;-71
2022/04/09 04:47:25;;;;;;;;;;;1.70;99.90;;;;;;5065828;28;19927;-72
2022/04/09 04:49:53;;;;;;;;;;;1.70;99.90;;;;;;5066162;28;20064;-72
2022/04/09 04:52:20;;;;;;;;;;;1.70;99.90;;;;;;5066090;28;19920;-72
2022/04/09 04:54:46;;;;;;;;;;;1.70;99.90;;;;;;5066299;28;19921;-71
2022/04/09 04:57:13;;;;;;;;;;;1.70;99.90;;;;;;5065389;28;19928;-71
2022/04/09 04:59:40;;;;;;;;;;;1.70;99.90;;;;;;5063068;28;20208;-72
2022/04/09 05:02:06;;;;;;;;;;;1.60;99.90;;;;;;5065775;28;19925;-72
2022/04/09 05:04:33;;;;;;;;;;;1.60;99.90;;;;;;5065642;28;19927;-72
2022/04/09 05:07:01;;;;;;;;;;;1.60;99.90;;;;;;5065093;28;20204;-72
2022/04/09 05:09:28;;;;;;;;;;;1.60;99.90;;;;;;5066067;28;19935;-72
2022/04/09 05:11:54;;;;;;;;;;;1.60;99.90;;;;;;5065581;28;20240;-72
2022/04/09 05:14:21;;;;;;;;;;;1.60;99.90;;;;;;5066015;28;19927;-72
2022/04/09 05:16:48;;;;;;;;;;;1.60;99.90;;;;;;5065280;28;19925;-72
2022/04/09 05:19:14;;;;;;;;;;;1.60;99.90;;;;;;5065620;28;19921;-72
2022/04/09 05:21:42;;;;;;;;;;;1.60;99.90;;;;;;5065489;28;19928;-73
2022/04/09 05:24:10;;;;;;;;;;;1.60;99.90;;;;;;5065734;28;19952;-72
2022/04/09 05:26:37;;;;;;;;;;;1.60;99.90;;;;;;5064981;28;19931;-72
2022/04/09 05:29:03;;;;;;;;;;;1.60;99.90;;;;;;5065304;28;19925;-72
2022/04/09 05:31:30;;;;;;;;;;;1.70;99.90;;;;;;5065242;28;20143;-72
2022/04/09 05:33:56;;;;;;;;;;;1.70;99.90;;;;;;5065224;28;19921;-72
2022/04/09 05:36:23;;;;;;;;;;;1.70;99.90;;;;;;5064703;28;19927;-74
2022/04/09 05:38:50;;;;;;;;;;;1.70;99.90;;;;;;5065563;28;19921;-71
2022/04/09 05:41:18;;;;;;;;;;;1.70;99.90;;;;;;5065436;28;20124;-73
2022/04/09 05:43:44;;;;;;;;;;;1.70;99.90;;;;;;5064463;28;19921;-73
2022/04/09 05:46:11;;;;;;;;;;;1.70;99.90;;;;;;5064539;28;20212;-72
2022/04/09 05:48:39;;;;;;;;;;;1.80;99.90;;;;;;5062542;28;19920;-72
2022/04/09 05:51:05;;;;;;;;;;;1.70;99.90;;;;;;5065530;28;19920;-74
2022/04/09 05:53:32;;;;;;;;;;;1.70;99.90;;;;;;5065388;28;19928;-72
2022/04/09 05:55:58;;;;;;;;;;;1.80;99.90;;;;;;5064525;28;19921;-72
2022/04/09 05:58:26;;;;;;;;;;;1.70;99.90;;;;;;5064737;28;20116;-72
2022/04/09 06:00:53;;;;;;;;;;;1.80;99.90;;;;;;5064825;28;19927;-72
2022/04/09 06:03:22;;;;;;;;;;;1.80;99.90;;;;;;5065147;28;19927;-73
2022/04/09 06:05:49;;;;;;;;;;;1.80;99.90;;;;;;5064310;28;19921;-72
2022/04/09 06:08:16;;;;;;;;;;;1.70;99.90;;;;;;5064674;28;19921;-72
2022/04/09 06:10:42;;;;;;;;;;;1.80;99.90;;;;;;5064448;28;19921;-72
2022/04/09 06:13:10;;;;;;;;;;;1.80;99.90;;;;;;5064304;28;20226;-72
2022/04/09 06:15:38;;;;;;;;;;;1.80;99.90;;;;;;5059485;28;20296;-72
2022/04/09 06:18:05;;;;;;;;;;;1.90;99.90;;;;;;5054671;28;19924;-72
2022/04/09 06:20:32;;;;;;;;;;;1.90;99.90;;;;;;5064684;28;19927;-72
2022/04/09 06:22:59;;;;;;;;;;;1.90;99.90;;;;;;5064429;28;19925;-72
2022/04/09 06:25:26;;;;;;;;;;;1.90;99.90;;;;;;5063562;28;20238;-69
2022/04/09 06:27:52;;;;;;;;;;;1.90;99.90;;;;;;5064409;28;19920;-71
2022/04/09 06:30:19;;;;;;;;;;;1.90;99.90;;;;;;5064605;28;19925;-76
2022/04/09 06:32:48;;;;;;;;;;;1.90;99.90;;;;;;5064267;28;19927;-71
2022/04/09 06:35:14;;;;;;;;;;;1.90;99.90;;;;;;5066555;28;19982;-75
2022/04/09 06:37:41;;;;;;;;;;;2.00;99.90;;;;;;5064493;28;19928;-76
2022/04/09 06:40:09;;;;;;;;;;;2.00;99.90;;;;;;5067506;28;19921;-76
2022/04/09 06:42:36;;;;;;;;;;;2.00;99.90;;;;;;5064190;28;19984;-72
2022/04/09 06:45:03;;;;;;;;;;;2.10;99.90;;;;;;5064272;28;19943;-72
2022/04/09 06:47:29;;;;;;;;;;;2.10;99.90;;;;;;5063916;28;19921;-72
2022/04/09 06:49:58;;;;;;;;;;;2.20;99.90;;;;;;5064328;28;19928;-72
2022/04/09 06:52:25;;;;;;;;;;;2.20;99.90;;;;;;5064662;28;19921;-71
2022/04/09 06:54:55;;;;;;;;;;;2.30;99.90;;;;;;5071408;28;19927;-72
2022/04/09 06:57:22;;;;;;;;;;;2.30;99.90;;;;;;5074793;28;20111;-73
2022/04/09 06:59:48;;;;;;;;;;;2.30;99.90;;;;;;5083983;28;19927;-72
2022/04/09 07:02:15;;;;;;;;;;;2.30;99.90;;;;;;5083893;28;19924;-72
2022/04/09 07:04:41;;;;;;;;;;;2.40;99.90;;;;;;5068651;28;19927;-72
2022/04/09 07:07:09;;;;;;;;;;;2.40;99.90;;;;;;5048818;28;19941;-71
2022/04/09 07:09:36;;;;;;;;;;;2.40;99.90;;;;;;5047489;28;19927;-72
2022/04/09 07:12:03;;;;;;;;;;;2.40;99.90;;;;;;5064161;28;19927;-72
2022/04/09 07:14:29;;;;;;;;;;;2.40;99.90;;;;;;5064058;28;19927;-70
2022/04/09 07:17:00;;;;;;;;;;;2.40;99.90;;;;;;5062707;28;19951;-71
2022/04/09 07:19:26;;;;;;;;;;;2.40;99.90;;;;;;5063048;28;19956;-73
2022/04/09 07:21:53;;;;;;;;;;;2.40;99.90;;;;;;5052512;28;19920;-72
2022/04/09 07:24:21;;;;;;;;;;;2.40;99.90;;;;;;5061096;28;19958;-72
2022/04/09 07:26:48;;;;;;;;;;;2.50;99.90;;;;;;5061263;28;20234;-71
2022/04/09 07:29:15;;;;;;;;;;;2.50;99.90;;;;;;5071539;28;19940;-73
2022/04/09 07:31:41;;;;;;;;;;;2.40;99.90;;;;;;5063096;28;19929;-72
2022/04/09 07:34:08;;;;;;;;;;;2.50;99.90;;;;;;5060426;28;19921;-71
2022/04/09 07:36:35;;;;;;;;;;;2.50;99.90;;;;;;5075374;23;19921;-72
2022/04/09 07:39:01;;;;;;;;;;;2.40;99.90;;;;;;5075420;28;19920;-72
2022/04/09 07:41:29;;;;;;;;;;;2.40;99.90;;;;;;5075977;28;19927;-72
2022/04/09 07:43:56;;;;;;;;;;;2.40;99.90;;;;;;5079088;28;19928;-72
2022/04/09 07:46:22;;;;;;;;;;;2.50;99.90;;;;;;5072162;28;19920;-72
2022/04/09 07:48:49;;;;;;;;;;;2.60;99.90;;;;;;5083067;28;19927;-72
2022/04/09 07:51:15;;;;;;;;;;;2.60;99.90;;;;;;5082944;28;19942;-72
2022/04/09 07:53:42;;;;;;;;;;;2.70;99.90;;;;;;5083531;28;19924;-72
2022/04/09 07:56:09;;;;;;;;;;;2.70;99.90;;;;;;5082406;28;19927;-72
2022/04/09 07:58:37;;;;;;;;;;;2.80;99.90;;;;;;5083267;28;19966;-73
2022/04/09 08:01:03;;;;;;;;;;;2.80;99.90;;;;;;5083054;28;19920;-72
2022/04/09 08:03:30;;;;;;;;;;;2.80;99.90;;;;;;5083012;28;19920;-73
2022/04/09 08:05:57;;;;;;;;;;;2.80;99.90;;;;;;5082374;28;19921;-72
2022/04/09 08:08:24;;;;;;;;;;;2.80;99.90;;;;;;5085477;28;19920;-74
2022/04/09 08:10:51;;;;;;;;;;;2.80;99.90;;;;;;5078811;28;19920;-72
2022/04/09 08:13:18;;;;;;;;;;;2.90;99.90;;;;;;5087102;28;19926;-74
2022/04/09 08:15:46;;;;;;;;;;;2.90;99.90;;;;;;5085922;28;19920;-72
2022/04/09 08:18:12;;;;;;;;;;;2.90;99.90;;;;;;5086928;28;19927;-72
2022/04/09 08:20:40;;;;;;;;;;;3.00;99.90;;;;;;5089173;28;20138;-72
2022/04/09 08:23:06;;;;;;;;;;;3.00;99.90;;;;;;5086903;28;19920;-73
2022/04/09 08:25:33;;;;;;;;;;;3.10;99.90;;;;;;5086388;28;19928;-72
2022/04/09 08:28:00;;;;;;;;;;;3.10;99.90;;;;;;5085851;28;19920;-72
2022/04/09 08:30:27;;;;;;;;;;;3.20;99.90;;;;;;5086540;28;19920;-72
2022/04/09 08:32:56;;;;;;;;;;;3.20;99.90;;;;;;5086430;28;19921;-72
2022/04/09 08:35:23;;;;;;;;;;;3.30;99.90;;;;;;5073754;28;19924;-72
2022/04/09 08:37:52;;;;;;;;;;;3.40;99.90;;;;;;5082207;28;19921;-72
2022/04/09 08:40:19;;;;;;;;;;;3.30;99.90;;;;;;5086231;28;19925;-73
2022/04/09 08:42:47;;;;;;;;;;;3.20;99.90;;;;;;5082919;28;19920;-72
2022/04/09 08:45:13;;;;;;;;;;;3.10;99.90;;;;;;5083351;28;19920;-72
2022/04/09 08:47:42;;;;;;;;;;;3.10;99.90;;;;;;5085015;28;20116;-72
2022/04/09 08:50:10;;;;;;;;;;;3.10;99.90;;;;;;5085724;28;20219;-72
2022/04/09 08:52:38;;;;;;;;;;;3.10;99.90;;;;;;5086077;28;20220;-72
2022/04/09 08:55:05;;;;;;;;;;;3.20;99.90;;;;;;5085898;28;19928;-72
2022/04/09 08:57:31;;;;;;;;;;;3.20;99.90;;;;;;5085622;28;20215;-72
2022/04/09 08:59:58;;;;;;;;;;;3.20;99.90;;;;;;5079616;28;19921;-72
2022/04/09 09:02:26;;;;;;;;;;;3.10;99.90;;;;;;5077288;28;19920;-72
2022/04/09 09:04:52;;;;;;;;;;;3.20;99.90;;;;;;5078547;28;19920;-70
2022/04/09 09:07:21;;;;;;;;;;;3.30;99.90;;;;;;5072298;28;19921;-69
2022/04/09 09:09:48;;;;;;;;;;;3.40;99.90;;;;;;5076646;28;19920;-70
2022/04/09 09:12:28;;;;;;;;;;;3.50;99.90;;;;;;5078814;28;19921;-69
2022/04/09 09:14:56;;;;;;;;;;;3.50;99.90;;;;;;5072086;28;19970;-69
2022/04/09 09:17:28;;;;;;;;;;;3.60;99.90;;;;;;5076932;28;19928;-70
2022/04/09 09:19:54;;;;;;;;;;;3.60;99.90;;;;;;5076635;28;19920;-70
2022/04/09 09:22:22;;;;;;;;;;;3.60;99.90;;;;;;5077744;28;19926;-69
2022/04/09 09:25:01;;;;;;;;;;;3.70;99.90;;;;;;5073392;28;20310;-72
2022/04/09 09:27:28;;;;;;;;;;;3.70;99.90;;;;;;5075621;28;19920;-74
2022/04/09 09:29:55;;;;;;;;;;;3.70;99.90;;;;;;5080664;28;20216;-72
2022/04/09 09:32:24;;;;;;;;;;;3.70;99.90;;;;;;5074101;28;19920;-72
2022/04/09 09:34:53;;;;;;;;;;;3.70;99.90;;;;;;5076250;28;20287;-72
2022/04/09 09:37:21;;;;;;;;;;;3.70;99.90;;;;;;5077169;28;20114;-72
2022/04/09 09:39:49;;;;;;;;;;;3.70;99.90;;;;;;5073062;28;20208;-72
2022/04/09 09:42:18;;;;;;;;;;;3.80;99.90;;;;;;5078123;28;19987;-72
2022/04/09 09:44:45;;;;;;;;;;;3.80;99.90;;;;;;5065712;28;19921;-72
2022/04/09 09:47:12;;;;;;;;;;;4.00;99.90;;;;;;5067959;28;21069;-72
2022/04/09 09:49:41;;;;;;;;;;;4.00;99.90;;;;;;5079350;28;19956;-73
2022/04/09 09:52:08;;;;;;;;;;;4.10;99.90;;;;;;5081110;28;19928;-72
2022/04/09 09:54:35;;;;;;;;;;;4.10;99.90;;;;;;5076035;28;19932;-72
2022/04/09 09:57:03;;;;;;;;;;;4.10;99.90;;;;;;5075348;28;19920;-72
2022/04/09 09:59:30;;;;;;;;;;;4.10;99.90;;;;;;5074236;28;19948;-72
2022/04/09 10:01:57;;;;;;;;;;;4.20;99.90;;;;;;5079116;28;19932;-72
2022/04/09 10:04:23;;;;;;;;;;;4.30;99.90;;;;;;5081654;28;19991;-72
2022/04/09 10:06:50;;;;;;;;;;;4.30;99.90;;;;;;5082768;28;19921;-71
2022/04/09 10:09:19;;;;;;;;;;;4.30;99.90;;;;;;5078877;28;19927;-72
2022/04/09 10:11:49;;;;;;;;;;;4.40;99.90;;;;;;5071790;28;20043;-72
2022/04/09 10:14:21;;;;;;;;;;;4.40;99.90;;;;;;5073248;28;20107;-72
2022/04/09 10:16:49;;;;;;;;;;;4.30;99.90;;;;;;5070519;28;20216;-72
2022/04/09 10:19:18;;;;;;;;;;;4.40;99.90;;;;;;5086160;28;19920;-72
2022/04/09 10:21:46;;;;;;;;;;;4.50;99.90;;;;;;5104618;28;19928;-72
2022/04/09 10:24:15;;;;;;;;;;;4.70;99.90;;;;;;5104721;28;19926;-72
2022/04/09 10:26:42;;;;;;;;;;;4.80;99.90;;;;;;5104212;28;19927;-73
2022/04/09 10:29:10;;;;;;;;;;;4.90;99.90;;;;;;5098611;28;19920;-72
2022/04/09 10:31:38;;;;;;;;;;;5.10;99.90;;;;;;5083931;28;19984;-72
2022/04/09 10:34:06;;;;;;;;;;;5.20;99.90;;;;;;5083935;28;19921;-73
2022/04/09 10:36:53;;;;;;;;;;;5.40;99.90;;;;;;5083527;28;19927;-71
2022/04/09 10:39:20;;;;;;;;;;;5.60;99.90;;;;;;5084315;28;19921;-69
2022/04/09 10:41:47;;;;;;;;;;;5.80;99.90;;;;;;5084032;28;19966;-69
2022/04/09 10:44:33;;;;;;;;;;;5.90;99.90;;;;;;5084069;28;19999;-69
2022/04/09 10:47:02;;;;;;;;;;;6.00;99.90;;;;;;5083072;28;19920;-69
2022/04/09 10:49:29;;;;;;;;;;;6.30;99.90;;;;;;5084066;28;20116;-69
2022/04/09 10:52:03;;;;;;;;;;;6.50;99.90;;;;;;5084243;28;20278;-67
2022/04/09 10:54:30;;;;;;;;;;;6.40;99.90;;;;;;5063642;28;19927;-68
2022/04/09 10:57:06;;;;;;;;;;;6.30;99.90;;;;;;5063156;28;20155;-69
2022/04/09 10:59:33;;;;;;;;;;;6.20;99.90;;;;;;5069119;28;19920;-68
2022/04/09 11:02:04;;;;;;;;;;;6.20;99.90;;;;;;5083754;28;19927;-69
2022/04/09 11:04:41;;;;;;;;;;;6.30;99.90;;;;;;5077271;28;19926;-69
2022/04/09 11:07:09;;;;;;;;;;;6.20;99.90;;;;;;5082985;28;19920;-69
2022/04/09 11:09:42;;;;;;;;;;;6.20;99.90;;;;;;5082672;28;20381;-70
2022/04/09 11:12:08;;;;;;;;;;;6.10;99.90;;;;;;5083575;28;19921;-70
2022/04/09 11:14:42;;;;;;;;;;;6.00;99.90;;;;;;5074005;28;19927;-69
2022/04/09 11:17:16;;;;;;;;;;;6.00;99.90;;;;;;5075223;28;19927;-70
2022/04/09 11:19:42;;;;;;;;;;;6.20;99.90;;;;;;5070370;28;19927;-69
2022/04/09 11:22:09;;;;;;;;;;;6.30;99.90;;;;;;5080064;28;20097;-69
2022/04/09 11:24:36;;;;;;;;;;;6.50;99.90;;;;;;5069855;28;19928;-69
2022/04/09 11:27:03;;;;;;;;;;;6.80;99.90;;;;;;5076917;28;19925;-70
2022/04/09 11:29:32;;;;;;;;;;;6.80;99.90;;;;;;5075337;28;19920;-69
2022/04/09 11:31:59;;;;;;;;;;;6.90;99.90;;;;;;5077062;28;19920;-70
2022/04/09 11:34:27;;;;;;;;;;;6.80;99.90;;;;;;5072051;28;20215;-70
2022/04/09 11:37:08;;;;;;;;;;;6.80;99.90;;;;;;5071125;28;19962;-69
2022/04/09 11:39:38;;;;;;;;;;;6.90;99.90;;;;;;5069295;28;19925;-69
2022/04/09 11:42:05;;;;;;;;;;;7.00;99.90;;;;;;5069387;28;20151;-70
2022/04/09 11:44:32;;;;;;;;;;;7.30;99.90;;;;;;5074014;28;19921;-69
2022/04/09 11:47:06;;;;;;;;;;;7.50;99.90;;;;;;5062514;28;19928;-70
2022/04/09 11:49:34;;;;;;;;;;;7.50;99.90;;;;;;5075509;28;20143;-70
2022/04/09 11:52:01;;;;;;;;;;;7.50;99.90;;;;;;5073733;28;19921;-70
2022/04/09 11:54:31;;;;;;;;;;;7.70;99.90;;;;;;5082147;28;19936;-70
2022/04/09 11:56:57;;;;;;;;;;;7.70;99.90;;;;;;5069734;28;20196;-69
2022/04/09 11:59:24;;;;;;;;;;;7.70;99.90;;;;;;5071023;28;20000;-73
2022/04/09 12:01:51;;;;;;;;;;;7.80;99.90;;;;;;5078099;28;19920;-71
2022/04/09 12:04:19;;;;;;;;;;;7.70;99.90;;;;;;5077782;28;19991;-71
2022/04/09 12:06:47;;;;;;;;;;;7.40;99.90;;;;;;5069086;28;19943;-71
2022/04/09 12:09:14;;;;;;;;;;;7.50;99.90;;;;;;5063080;28;20208;-71
2022/04/09 12:11:42;;;;;;;;;;;7.80;99.90;;;;;;5071209;28;20204;-68
2022/04/09 12:14:09;;;;;;;;;;;8.00;99.90;;;;;;5073667;28;19926;-69
2022/04/09 12:16:38;;;;;;;;;;;8.10;99.90;;;;;;5073419;28;19927;-68
2022/04/09 12:19:05;;;;;;;;;;;8.40;99.90;;;;;;5074834;28;19958;-69
2022/04/09 12:21:32;;;;;;;;;;;8.60;99.90;;;;;;5073759;28;19921;-69
2022/04/09 12:24:03;;;;;;;;;;;8.80;99.90;;;;;;5072778;28;20169;-69
2022/04/09 12:26:30;;;;;;;;;;;8.90;99.90;;;;;;5076855;28;19948;-68
2022/04/09 12:29:07;;;;;;;;;;;8.50;99.90;;;;;;5081355;28;19921;-68
2022/04/09 12:31:34;;;;;;;;;;;8.20;99.90;;;;;;5079910;28;19966;-68
2022/04/09 12:34:01;;;;;;;;;;;8.00;99.90;;;;;;5071504;28;20227;-69
2022/04/09 12:36:28;;;;;;;;;;;8.00;99.90;;;;;;5069045;28;19920;-68
2022/04/09 12:38:54;;;;;;;;;;;7.70;99.90;;;;;;5074446;28;19920;-73
2022/04/09 12:41:22;;;;;;;;;;;7.80;99.90;;;;;;5077809;28;19935;-69
2022/04/09 12:43:52;;;;;;;;;;;7.70;99.90;;;;;;5078347;28;19943;-69
2022/04/09 12:46:19;;;;;;;;;;;7.90;99.90;;;;;;5074144;28;19966;-69
2022/04/09 12:48:46;;;;;;;;;;;8.30;99.90;;;;;;5075417;28;19920;-69
2022/04/09 12:51:15;;;;;;;;;;;8.60;99.90;;;;;;5075332;28;20105;-69
2022/04/09 12:53:43;;;;;;;;;;;8.70;99.90;;;;;;5074513;28;19921;-66
2022/04/09 12:56:10;;;;;;;;;;;9.00;99.90;;;;;;5081887;28;19987;-70
2022/04/09 12:58:38;;;;;;;;;;;8.90;99.90;;;;;;5078432;28;19934;-69
2022/04/09 13:01:06;;;;;;;;;;;8.80;99.90;;;;;;5078506;28;19921;-70
2022/04/09 13:03:32;;;;;;;;;;;8.90;99.90;;;;;;5078119;28;19925;-70
2022/04/09 13:05:59;;;;;;;;;;;8.90;99.90;;;;;;5078991;28;20212;-69
2022/04/09 13:08:26;;;;;;;;;;;8.70;99.90;;;;;;5077409;28;19929;-69
2022/04/09 13:10:52;;;;;;;;;;;8.60;99.90;;;;;;5081430;28;19981;-67
2022/04/09 13:13:20;;;;;;;;;;;8.70;99.90;;;;;;5086123;28;19943;-68
2022/04/09 13:15:48;;;;;;;;;;;8.80;99.90;;;;;;5080527;28;19924;-68
2022/04/09 13:18:15;;;;;;;;;;;8.80;99.90;;;;;;5085664;28;19926;-68
2022/04/09 13:20:43;;;;;;;;;;;8.60;99.90;;;;;;5082421;28;20115;-67
2022/04/09 13:23:09;;;;;;;;;;;8.60;99.90;;;;;;5078461;28;19987;-68
2022/04/09 13:25:36;;;;;;;;;;;9.00;99.90;;;;;;5079664;28;20130;-68
2022/04/09 13:28:03;;;;;;;;;;;9.20;99.90;;;;;;5075921;28;20748;-68
2022/04/09 13:30:29;;;;;;;;;;;9.60;99.90;;;;;;5074524;28;20220;-68
2022/04/09 13:32:57;;;;;;;;;;;10.00;99.90;;;;;;5078748;28;19924;-67
2022/04/09 13:35:24;;;;;;;;;;;10.20;99.90;;;;;;5088155;22;19924;-67
2022/04/09 13:37:50;;;;;;;;;;;10.20;99.90;;;;;;5074874;28;20104;-67
2022/04/09 13:40:17;;;;;;;;;;;9.70;99.90;;;;;;5083788;28;19927;-67
2022/04/09 13:42:43;;;;;;;;;;;9.50;99.90;;;;;;5085115;28;19927;-67
2022/04/09 13:45:11;;;;;;;;;;;9.30;99.90;;;;;;5084708;28;19927;-67
2022/04/09 13:47:37;;;;;;;;;;;9.50;99.90;;;;;;5085087;28;20034;-67
2022/04/09 13:50:06;;;;;;;;;;;9.60;99.90;;;;;;5085211;28;19928;-67
2022/04/09 13:52:33;;;;;;;;;;;9.80;99.90;;;;;;5084750;28;19927;-68
2022/04/09 13:54:59;;;;;;;;;;;9.90;99.90;;;;;;5084514;28;19927;-66
2022/04/09 13:57:26;;;;;;;;;;;10.10;99.90;;;;;;5080777;28;19920;-68
2022/04/09 13:59:53;;;;;;;;;;;10.40;99.90;;;;;;5083890;28;20003;-67
2022/04/09 14:02:19;;;;;;;;;;;10.60;99.90;;;;;;5084744;28;19921;-68
2022/04/09 14:04:46;;;;;;;;;;;10.40;99.90;;;;;;5079874;28;19921;-68
2022/04/09 14:07:14;;;;;;;;;;;10.00;99.90;;;;;;5084088;28;19928;-68
2022/04/09 14:09:41;;;;;;;;;;;9.80;99.90;;;;;;5084311;28;19920;-67
2022/04/09 14:12:08;;;;;;;;;;;9.60;99.90;;;;;;5084424;28;20234;-67
2022/04/09 14:14:34;;;;;;;;;;;9.40;99.90;;;;;;5084138;28;19928;-68
2022/04/09 14:17:01;;;;;;;;;;;9.00;99.90;;;;;;5084009;28;19924;-68
2022/04/09 14:19:27;;;;;;;;;;;8.90;99.90;;;;;;5081708;28;19927;-68
2022/04/09 14:21:55;;;;;;;;;;;9.10;99.90;;;;;;5084096;28;19920;-68
2022/04/09 14:24:23;;;;;;;;;;;9.40;99.90;;;;;;5084475;28;19920;-67
2022/04/09 14:26:49;;;;;;;;;;;9.80;99.90;;;;;;5083820;28;19921;-68
2022/04/09 14:29:16;;;;;;;;;;;10.20;99.90;;;;;;5083839;28;19921;-68